Accueil
METAR-TAF:

METAR-TAF

Aéroports :

Page, Arizona, États-Unis

latitude: 36-55-14N, longitude: 111-26-53W, altitude: 1314 m

Observation

Le bulletin a été fait il y a 59 minutes, à 14:53 UTC
Vent calme
Température 7°C
Humidité 31%
Pression 1024 hPa
Visibilité: 16.1 km
Ciel clair

METAR: KPGA 141453Z AUTO 00000KT 10SM CLR 07/M09 A3024 RMK AO2 SLP223 T00671094 53017 TSNO

Heure: 08:52 (15:52 UTC)

Prévision

Le bulletin a été fait il y a 4 heures et 32 minutes, à 11:20 UTC
Prévision valable du 14 à 12 UTC au 15 à 12 UTC
Vent 3 kt de direction variable
Visibilité: 10 km
Nuages fragmentés à une hauteur de 25000 ft

TAF: KPGA 141120Z 1412/1512 VRB03KT P6SM BKN250

Observations et prévisions météorologiques de plus de 4000 aéroports (messages METAR et TAF).

Les stations disponibles sont représentées par des disques jaunes et rouges sur la carte.

Passer la souris dessus pour voir le nom de la station.

Cliquer dessus pour voir les observations et prévisions météorologiques.

Pour changer de carte: cliquez sur les boutons verts avec une croix noire pour zoomer, sur le bouton vert avec un tiret pour effectuer un zoom arrière, ou sur les flèches vertes pour les cartes adjacentes.


METAR-TAF: